Time;durP1;ratioP1;P1;durP2;ratioP2;P2;SDS_P1;SDS_P2;PMS_P1;PMS_P2;Temp;Humidity;BMP_temperature;BMP_pressure;BME280_temperature;BME280_humidity;BME280_pressure;Samples;Min_cycle;Max_cycle;Signal;HPM_P1;HPM_P2
2022/03/15 00:02:25;;;;;;;1.50;1.20;;;7.50;98.20;;;;;;5072438;28;20492;-76
2022/03/15 00:04:53;;;;;;;1.50;1.27;;;7.50;98.20;;;;;;5085250;28;20473;-77
2022/03/15 00:07:22;;;;;;;1.60;1.30;;;7.40;98.20;;;;;;5070642;28;20516;-74
2022/03/15 00:09:50;;;;;;;1.50;1.30;;;7.40;98.20;;;;;;5086501;28;20551;-76
2022/03/15 00:12:17;;;;;;;1.50;1.20;;;7.50;98.20;;;;;;5081016;28;20860;-76
2022/03/15 00:14:44;;;;;;;1.50;1.40;;;7.40;98.20;;;;;;5090680;28;20467;-76
2022/03/15 00:17:12;;;;;;;1.50;1.30;;;7.40;98.20;;;;;;5081835;28;20508;-76
2022/03/15 00:19:39;;;;;;;1.50;1.20;;;7.40;98.20;;;;;;5077177;28;20488;-75
2022/03/15 00:22:06;;;;;;;1.50;1.30;;;7.40;98.20;;;;;;5079416;28;20865;-75
2022/03/15 00:24:34;;;;;;;1.50;1.20;;;7.40;98.20;;;;;;5076474;28;20907;-76
2022/03/15 00:27:01;;;;;;;1.53;1.30;;;7.40;98.20;;;;;;5078082;28;20967;-77
2022/03/15 00:29:29;;;;;;;1.80;1.70;;;7.30;98.20;;;;;;5087941;28;20466;-77
2022/03/15 00:31:56;;;;;;;1.50;1.20;;;7.30;98.20;;;;;;5082208;28;20488;-75
2022/03/15 00:34:23;;;;;;;1.50;1.10;;;7.30;98.20;;;;;;5074388;28;20495;-76
2022/03/15 00:36:49;;;;;;;1.53;1.30;;;7.20;98.20;;;;;;5075358;28;20492;-77
2022/03/15 00:39:17;;;;;;;1.50;1.20;;;7.20;98.20;;;;;;5093398;28;20478;-75
2022/03/15 00:41:45;;;;;;;1.50;1.30;;;7.20;98.20;;;;;;5083201;28;20898;-77
2022/03/15 00:44:12;;;;;;;1.50;1.27;;;7.20;98.20;;;;;;5081572;28;20467;-77
2022/03/15 00:46:39;;;;;;;1.50;1.20;;;7.20;98.20;;;;;;5082463;28;20592;-77
2022/03/15 00:49:06;;;;;;;1.50;1.30;;;7.20;98.20;;;;;;5079477;28;20465;-77
2022/03/15 00:51:34;;;;;;;1.50;1.23;;;7.20;98.20;;;;;;5076429;28;20473;-77
2022/03/15 00:54:01;;;;;;;1.50;1.30;;;7.20;98.20;;;;;;5088182;28;21017;-75
2022/03/15 00:56:28;;;;;;;1.50;1.30;;;7.10;98.20;;;;;;5083639;28;20484;-78
2022/03/15 00:58:56;;;;;;;1.50;1.20;;;7.10;98.20;;;;;;5083570;28;20540;-77
2022/03/15 01:01:22;;;;;;;1.60;1.30;;;7.10;98.20;;;;;;5087199;28;20467;-75
2022/03/15 01:03:49;;;;;;;1.50;1.20;;;7.10;98.20;;;;;;5074082;28;20489;-78
2022/03/15 01:06:16;;;;;;;1.50;1.27;;;7.10;98.20;;;;;;5081441;28;20457;-73
2022/03/15 01:08:43;;;;;;;1.50;1.10;;;7.00;98.20;;;;;;5073063;28;21017;-75
2022/03/15 01:11:10;;;;;;;1.50;1.20;;;7.00;98.20;;;;;;5072624;28;20472;-77
2022/03/15 01:13:36;;;;;;;1.50;1.30;;;7.00;98.20;;;;;;5066393;28;20555;-78
2022/03/15 01:16:05;;;;;;;1.50;1.30;;;7.00;98.20;;;;;;5089835;28;21011;-76
2022/03/15 01:18:33;;;;;;;1.57;1.30;;;7.00;98.20;;;;;;5092105;28;20464;-74
2022/03/15 01:21:00;;;;;;;1.50;1.30;;;7.00;98.20;;;;;;5081097;28;20555;-74
2022/03/15 01:23:27;;;;;;;1.60;1.30;;;7.00;98.20;;;;;;5087298;28;20988;-76
2022/03/15 01:25:55;;;;;;;1.50;1.20;;;6.90;98.20;;;;;;5077680;28;20470;-77
2022/03/15 01:28:22;;;;;;;1.50;1.20;;;6.90;98.20;;;;;;5072856;28;20469;-76
2022/03/15 01:30:49;;;;;;;1.50;1.20;;;6.90;98.20;;;;;;5089848;28;21028;-75
2022/03/15 01:33:17;;;;;;;1.53;1.30;;;6.90;98.20;;;;;;5075943;28;20975;-75
2022/03/15 01:35:44;;;;;;;1.60;1.30;;;6.90;98.20;;;;;;5072396;28;20488;-76
2022/03/15 01:38:11;;;;;;;1.60;1.30;;;6.90;98.20;;;;;;5072888;28;20461;-77
2022/03/15 01:40:38;;;;;;;1.50;1.30;;;6.90;98.20;;;;;;5070320;28;20469;-74
2022/03/15 01:43:05;;;;;;;1.50;1.23;;;6.90;98.20;;;;;;5071012;28;20489;-76
2022/03/15 01:45:34;;;;;;;1.50;1.20;;;6.90;98.20;;;;;;5072379;28;20507;-77
2022/03/15 01:48:01;;;;;;;1.50;1.20;;;6.90;98.20;;;;;;5074951;28;20453;-75
2022/03/15 01:50:29;;;;;;;1.50;1.30;;;6.90;98.20;;;;;;5068899;28;20488;-77
2022/03/15 01:52:56;;;;;;;1.53;1.30;;;6.90;98.20;;;;;;5076115;28;20476;-75
2022/03/15 01:55:23;;;;;;;1.50;1.30;;;6.90;98.20;;;;;;5070472;28;20469;-77
2022/03/15 01:57:50;;;;;;;1.50;1.20;;;6.90;98.20;;;;;;5069584;28;20635;-75
2022/03/15 02:00:18;;;;;;;1.53;1.30;;;7.00;98.20;;;;;;5069657;28;20461;-76
2022/03/15 02:02:46;;;;;;;1.50;1.20;;;7.00;98.20;;;;;;5070998;28;20493;-75
2022/03/15 02:05:13;;;;;;;1.57;1.30;;;6.90;98.20;;;;;;5071280;28;20953;-75
2022/03/15 02:07:41;;;;;;;1.60;1.30;;;6.90;98.20;;;;;;5081388;28;20460;-76
2022/03/15 02:10:09;;;;;;;1.57;1.40;;;6.90;98.20;;;;;;5090234;28;20980;-74
2022/03/15 02:12:38;;;;;;;1.50;1.30;;;6.90;98.20;;;;;;5075521;28;20543;-76
2022/03/15 02:15:07;;;;;;;1.50;1.30;;;6.90;98.20;;;;;;5082021;28;20560;-77
2022/03/15 02:17:34;;;;;;;1.50;1.30;;;6.90;98.20;;;;;;5076358;28;20508;-75
2022/03/15 02:20:05;;;;;;;1.60;1.50;;;7.00;98.20;;;;;;5073213;28;20461;-78
2022/03/15 02:22:33;;;;;;;1.50;1.40;;;7.00;98.20;;;;;;5071280;28;20493;-76
2022/03/15 02:24:59;;;;;;;1.50;1.30;;;7.00;98.20;;;;;;5075134;28;20544;-76
2022/03/15 02:27:26;;;;;;;1.50;1.30;;;7.00;98.20;;;;;;5060776;28;20752;-77
2022/03/15 02:29:53;;;;;;;1.50;1.30;;;7.00;98.20;;;;;;5064330;28;20472;-76
2022/03/15 02:32:21;;;;;;;1.50;1.27;;;7.00;98.20;;;;;;5070305;28;20492;-77
2022/03/15 02:34:47;;;;;;;1.70;1.60;;;7.00;98.20;;;;;;5070695;28;20674;-76
2022/03/15 02:37:15;;;;;;;1.50;1.30;;;7.00;98.20;;;;;;5069629;28;20500;-73
2022/03/15 02:39:42;;;;;;;1.50;1.27;;;7.00;98.20;;;;;;5066043;28;20461;-77
2022/03/15 02:42:09;;;;;;;1.60;1.40;;;7.00;98.20;;;;;;5070897;28;20482;-77
2022/03/15 02:44:36;;;;;;;1.50;1.20;;;7.10;98.20;;;;;;5080365;28;20556;-72
2022/03/15 02:47:03;;;;;;;1.50;1.20;;;7.10;98.20;;;;;;5079629;28;20463;-77
2022/03/15 02:49:30;;;;;;;1.50;1.30;;;7.10;98.20;;;;;;5088908;28;20536;-76
2022/03/15 02:51:57;;;;;;;1.50;1.30;;;7.10;98.20;;;;;;5080169;28;20993;-76
2022/03/15 02:54:25;;;;;;;1.50;1.20;;;7.10;98.20;;;;;;5067992;28;20462;-76
2022/03/15 02:56:52;;;;;;;1.50;1.20;;;7.10;98.20;;;;;;5069295;28;20860;-75
2022/03/15 02:59:19;;;;;;;2.37;2.17;;;7.10;98.20;;;;;;5069302;28;20465;-77
2022/03/15 03:01:47;;;;;;;1.50;1.30;;;7.10;98.20;;;;;;5069686;28;20910;-76
2022/03/15 03:04:15;;;;;;;1.50;1.20;;;7.10;98.20;;;;;;5077807;28;20569;-76
2022/03/15 03:06:42;;;;;;;1.50;1.40;;;7.10;98.20;;;;;;5079035;28;21104;-76
2022/03/15 03:09:11;;;;;;;1.50;1.30;;;7.10;98.20;;;;;;5078719;28;20472;-76
2022/03/15 03:11:39;;;;;;;1.50;1.20;;;7.10;98.20;;;;;;5068397;28;20914;-76
2022/03/15 03:14:12;;;;;;;1.50;1.30;;;7.00;98.20;;;;;;5085141;28;20499;-76
2022/03/15 03:16:39;;;;;;;1.50;1.23;;;7.10;98.20;;;;;;5083437;28;20519;-75
2022/03/15 03:19:08;;;;;;;1.50;1.33;;;7.10;98.20;;;;;;5069848;28;20465;-75
2022/03/15 03:21:36;;;;;;;1.50;1.20;;;7.10;98.20;;;;;;5077827;28;20470;-77
2022/03/15 03:24:06;;;;;;;1.50;1.20;;;7.10;98.20;;;;;;5070204;28;20465;-78
2022/03/15 03:26:37;;;;;;;1.50;1.20;;;7.10;98.20;;;;;;5074045;28;20463;-76
2022/03/15 03:29:09;;;;;;;1.50;1.20;;;7.10;98.20;;;;;;5070668;28;20458;-77
2022/03/15 03:31:36;;;;;;;1.50;1.30;;;7.10;98.20;;;;;;5066980;28;20747;-75
2022/03/15 03:34:04;;;;;;;1.50;1.20;;;7.10;98.20;;;;;;5073427;28;20461;-75
2022/03/15 03:36:31;;;;;;;2.33;2.13;;;7.10;98.20;;;;;;5080818;28;20570;-74
2022/03/15 03:38:57;;;;;;;1.50;1.20;;;7.10;98.20;;;;;;5098041;28;20472;-75
2022/03/15 03:41:25;;;;;;;1.50;1.30;;;7.10;98.20;;;;;;5081994;28;20989;-76
2022/03/15 03:43:51;;;;;;;1.50;1.20;;;7.10;98.20;;;;;;5069894;28;20527;-76
2022/03/15 03:46:19;;;;;;;1.50;1.30;;;7.10;98.20;;;;;;5070091;28;20465;-76
2022/03/15 03:48:46;;;;;;;1.50;1.20;;;7.10;98.20;;;;;;5068580;28;20872;-76
2022/03/15 03:51:14;;;;;;;1.50;1.20;;;7.10;98.20;;;;;;5068274;28;20472;-76
2022/03/15 03:53:41;;;;;;;1.50;1.20;;;7.10;98.20;;;;;;5068758;28;20540;-74
2022/03/15 03:56:08;;;;;;;2.57;2.37;;;7.10;98.20;;;;;;5069757;28;21052;-76
2022/03/15 03:58:35;;;;;;;1.50;1.30;;;7.00;98.20;;;;;;5078917;28;20800;-77
2022/03/15 04:01:02;;;;;;;1.50;1.20;;;7.00;98.20;;;;;;5083181;28;20843;-76
2022/03/15 04:03:31;;;;;;;1.50;1.30;;;7.00;98.20;;;;;;5076894;22;20549;-73
2022/03/15 04:06:01;;;;;;;1.50;1.20;;;7.00;98.20;;;;;;5027122;28;20886;-73
2022/03/15 04:08:28;;;;;;;1.50;1.20;;;7.00;98.20;;;;;;5028451;28;20498;-72
2022/03/15 04:10:54;;;;;;;1.50;1.20;;;7.00;98.20;;;;;;5025623;28;20467;-73
2022/03/15 04:13:21;;;;;;;1.53;1.30;;;7.00;98.20;;;;;;5027394;28;20491;-73
2022/03/15 04:15:49;;;;;;;1.57;1.40;;;7.00;98.20;;;;;;5027710;28;20808;-73
2022/03/15 04:18:16;;;;;;;1.50;1.27;;;7.00;98.20;;;;;;5029312;28;20491;-72
2022/03/15 04:20:44;;;;;;;1.50;1.30;;;7.00;98.20;;;;;;5025761;28;20670;-73
2022/03/15 04:23:11;;;;;;;1.50;1.30;;;7.00;98.20;;;;;;5032077;28;20487;-73
2022/03/15 04:25:39;;;;;;;1.50;1.20;;;7.00;98.20;;;;;;5025767;28;20926;-72
2022/03/15 04:28:06;;;;;;;1.50;1.20;;;7.00;98.20;;;;;;5025984;28;20497;-72
2022/03/15 04:30:33;;;;;;;1.50;1.17;;;7.00;98.20;;;;;;5025932;28;20470;-73
2022/03/15 04:33:01;;;;;;;1.50;1.20;;;6.90;98.20;;;;;;5030729;28;20496;-72
2022/03/15 04:35:29;;;;;;;1.50;1.30;;;7.00;98.20;;;;;;5027666;28;20494;-73
2022/03/15 04:37:57;;;;;;;1.50;1.20;;;7.00;98.20;;;;;;5027824;28;20998;-72
2022/03/15 04:40:24;;;;;;;1.50;1.20;;;7.00;98.20;;;;;;5025271;28;20570;-73
2022/03/15 04:42:52;;;;;;;1.50;1.27;;;7.00;98.20;;;;;;5026716;28;20827;-73
2022/03/15 04:45:20;;;;;;;1.50;1.30;;;7.00;98.20;;;;;;5020964;28;21025;-73
2022/03/15 04:47:46;;;;;;;1.50;1.30;;;7.00;98.20;;;;;;5023641;28;20483;-73
2022/03/15 04:50:13;;;;;;;1.50;1.20;;;7.00;98.20;;;;;;5025529;28;20549;-73
2022/03/15 04:52:40;;;;;;;1.50;1.20;;;7.00;98.20;;;;;;5019462;28;20451;-73
2022/03/15 04:55:09;;;;;;;1.50;1.30;;;7.00;98.20;;;;;;5029123;28;20459;-74
2022/03/15 04:57:36;;;;;;;1.50;1.20;;;7.00;98.20;;;;;;5036151;28;20489;-72
2022/03/15 05:00:09;;;;;;;1.50;1.20;;;7.00;98.20;;;;;;5030122;28;20467;-72
2022/03/15 05:02:36;;;;;;;2.80;2.60;;;7.00;98.20;;;;;;5019266;28;21188;-73
2022/03/15 05:05:03;;;;;;;1.50;1.20;;;7.00;98.20;;;;;;5009665;28;20928;-73
2022/03/15 05:07:30;;;;;;;1.50;1.30;;;7.00;98.20;;;;;;5009304;28;20456;-73
2022/03/15 05:12:43;;;;;;;1.50;1.30;;;6.90;98.20;;;;;;5008502;28;20541;-73
2022/03/15 05:15:10;;;;;;;1.70;1.20;;;6.90;98.20;;;;;;5010054;28;20510;-74
2022/03/15 05:17:37;;;;;;;1.50;1.20;;;6.90;98.20;;;;;;5027800;28;20494;-73
2022/03/15 05:20:05;;;;;;;1.50;1.30;;;6.90;98.20;;;;;;5024545;28;20482;-72
2022/03/15 05:22:32;;;;;;;1.50;1.20;;;6.90;98.20;;;;;;5032099;28;20559;-72
2022/03/15 05:24:59;;;;;;;2.60;2.40;;;6.90;98.20;;;;;;5031414;28;21049;-73
2022/03/15 05:27:26;;;;;;;1.60;1.50;;;6.90;98.20;;;;;;5030676;28;20514;-73
2022/03/15 05:29:54;;;;;;;1.50;1.40;;;6.90;98.20;;;;;;5028192;28;20463;-72
2022/03/15 05:32:20;;;;;;;1.60;1.43;;;6.90;98.20;;;;;;5033314;28;20455;-73
2022/03/15 05:34:48;;;;;;;1.50;1.30;;;6.90;98.20;;;;;;5029169;28;20798;-72
2022/03/15 05:37:14;;;;;;;1.53;1.37;;;6.90;98.20;;;;;;5027168;28;21010;-74
2022/03/15 05:39:41;;;;;;;1.50;1.20;;;6.90;98.20;;;;;;5027160;28;20478;-72
2022/03/15 05:42:09;;;;;;;1.50;1.30;;;6.90;98.20;;;;;;5029072;28;20471;-72
2022/03/15 05:44:36;;;;;;;1.50;1.20;;;6.90;98.20;;;;;;5029346;28;20600;-73
2022/03/15 05:47:04;;;;;;;1.50;1.33;;;6.90;98.20;;;;;;5028568;28;20467;-74
2022/03/15 05:49:31;;;;;;;1.50;1.37;;;6.90;98.20;;;;;;5027918;28;20463;-73
2022/03/15 05:51:58;;;;;;;1.50;1.20;;;6.90;98.20;;;;;;5016886;28;20502;-73
2022/03/15 05:54:24;;;;;;;1.50;1.30;;;6.90;98.20;;;;;;5014235;28;20484;-73
2022/03/15 05:56:51;;;;;;;2.70;2.50;;;6.90;98.20;;;;;;5008870;28;20464;-73
2022/03/15 05:59:18;;;;;;;1.50;1.20;;;6.90;98.20;;;;;;5008727;28;20464;-73
2022/03/15 06:01:45;;;;;;;1.50;1.20;;;6.90;98.20;;;;;;5006848;28;20554;-74
2022/03/15 06:04:13;;;;;;;1.53;1.33;;;7.00;98.20;;;;;;5007799;28;20495;-73
2022/03/15 06:06:40;;;;;;;1.50;1.30;;;7.00;98.20;;;;;;5009032;28;20464;-73
2022/03/15 06:09:07;;;;;;;1.50;1.20;;;7.00;98.20;;;;;;5008652;28;20461;-74
2022/03/15 06:11:34;;;;;;;1.50;1.20;;;7.00;98.20;;;;;;5007681;28;20480;-73
2022/03/15 06:14:01;;;;;;;1.50;1.20;;;7.00;98.20;;;;;;5008549;28;20574;-73
2022/03/15 06:16:28;;;;;;;1.50;1.20;;;7.00;98.20;;;;;;5009215;28;20495;-73
2022/03/15 06:18:55;;;;;;;2.00;1.80;;;7.00;98.20;;;;;;5007796;28;20682;-74
2022/03/15 06:21:23;;;;;;;1.50;1.20;;;7.00;98.20;;;;;;5006583;28;20547;-73
2022/03/15 06:23:50;;;;;;;1.50;1.20;;;7.00;98.20;;;;;;5006510;28;20476;-74
2022/03/15 06:26:18;;;;;;;1.50;1.20;;;7.00;98.20;;;;;;5007336;28;20490;-74
2022/03/15 06:28:45;;;;;;;1.50;1.20;;;7.10;98.20;;;;;;5007649;28;20951;-74
2022/03/15 06:31:14;;;;;;;1.50;1.20;;;7.10;98.20;;;;;;5006368;28;20479;-73
2022/03/15 06:33:41;;;;;;;1.50;1.27;;;7.10;98.20;;;;;;5008226;28;20488;-74
2022/03/15 06:36:11;;;;;;;1.50;1.30;;;7.10;98.20;;;;;;5007697;28;20849;-74
2022/03/15 06:38:39;;;;;;;1.50;1.27;;;7.10;98.20;;;;;;5007331;28;20575;-73
2022/03/15 06:41:06;;;;;;;1.50;1.30;;;7.10;98.20;;;;;;5004899;28;21031;-73
2022/03/15 06:43:34;;;;;;;1.50;1.20;;;7.10;98.20;;;;;;5006384;28;20495;-73
2022/03/15 06:46:01;;;;;;;1.50;1.20;;;7.20;98.20;;;;;;4998942;28;20472;-75
2022/03/15 06:48:28;;;;;;;1.50;1.30;;;7.20;98.20;;;;;;5008410;28;20543;-73
2022/03/15 06:50:54;;;;;;;1.50;1.20;;;7.20;98.20;;;;;;5004584;28;20480;-74
2022/03/15 06:53:21;;;;;;;1.50;1.30;;;7.30;98.20;;;;;;5007615;28;20507;-74
2022/03/15 06:55:49;;;;;;;1.50;1.30;;;7.30;98.20;;;;;;5008957;28;20464;-74
2022/03/15 06:58:17;;;;;;;1.50;1.40;;;7.40;98.20;;;;;;5009457;28;20499;-75
2022/03/15 07:00:44;;;;;;;1.50;1.20;;;7.40;98.20;;;;;;5008343;28;20558;-76
2022/03/15 07:03:11;;;;;;;1.50;1.30;;;7.40;98.20;;;;;;5009284;28;21060;-76
2022/03/15 07:05:38;;;;;;;1.50;1.20;;;7.50;98.20;;;;;;5010567;28;20887;-75
2022/03/15 07:08:06;;;;;;;1.50;1.40;;;7.50;98.20;;;;;;5011239;28;20511;-75
2022/03/15 07:10:33;;;;;;;1.50;1.30;;;7.50;98.20;;;;;;5007267;28;20548;-74
2022/03/15 07:13:02;;;;;;;1.53;1.30;;;7.60;98.20;;;;;;4999087;28;20487;-74
2022/03/15 07:15:29;;;;;;;1.50;1.20;;;7.60;98.20;;;;;;5004047;28;20560;-77
2022/03/15 07:17:58;;;;;;;1.50;1.20;;;7.60;98.20;;;;;;5005266;28;20492;-73
2022/03/15 07:20:26;;;;;;;1.50;1.20;;;7.70;98.20;;;;;;5006904;28;20468;-78
2022/03/15 07:22:54;;;;;;;1.50;1.20;;;7.70;98.20;;;;;;5003204;28;20462;-74
2022/03/15 07:25:21;;;;;;;3.60;3.30;;;7.70;98.20;;;;;;5006072;28;20546;-77
2022/03/15 07:27:49;;;;;;;1.50;1.20;;;7.70;98.20;;;;;;5007481;28;20471;-73
2022/03/15 07:30:17;;;;;;;1.50;1.30;;;7.70;98.20;;;;;;5006556;28;20990;-75
2022/03/15 07:32:44;;;;;;;1.50;1.13;;;7.70;98.20;;;;;;5010048;28;20570;-76
2022/03/15 07:35:12;;;;;;;1.50;1.30;;;7.80;98.20;;;;;;5001441;28;20464;-73
2022/03/15 07:37:39;;;;;;;1.50;1.30;;;7.80;98.20;;;;;;5007294;28;20480;-74
2022/03/15 07:40:08;;;;;;;1.50;1.13;;;7.80;98.20;;;;;;5005357;28;20526;-76
2022/03/15 07:42:35;;;;;;;1.50;1.10;;;7.90;98.20;;;;;;5009634;28;20490;-76
2022/03/15 07:45:02;;;;;;;1.50;1.30;;;7.90;98.20;;;;;;5008460;28;20494;-74
2022/03/15 07:47:30;;;;;;;1.50;1.27;;;7.90;98.20;;;;;;4996490;28;20484;-74
2022/03/15 07:49:57;;;;;;;1.50;1.20;;;7.90;98.20;;;;;;5001715;28;21103;-74
2022/03/15 07:52:24;;;;;;;9.63;3.73;;;8.00;98.20;;;;;;5005865;28;20472;-74
2022/03/15 07:54:51;;;;;;;1.50;1.27;;;8.00;98.20;;;;;;5006323;28;20519;-78
2022/03/15 07:57:17;;;;;;;1.50;1.13;;;8.00;98.20;;;;;;5004729;28;20460;-74
2022/03/15 07:59:46;;;;;;;1.63;1.53;;;8.00;98.20;;;;;;5006638;28;20519;-74
2022/03/15 08:02:14;;;;;;;1.50;1.20;;;8.10;98.20;;;;;;5005613;28;20985;-74
2022/03/15 08:04:42;;;;;;;1.50;1.20;;;8.10;98.20;;;;;;5006083;28;20500;-74
2022/03/15 08:07:09;;;;;;;1.50;1.20;;;8.20;98.20;;;;;;5000984;28;20484;-76
2022/03/15 08:09:38;;;;;;;1.50;1.13;;;8.20;98.20;;;;;;5002852;28;20464;-76
2022/03/15 08:12:05;;;;;;;1.50;1.10;;;8.20;98.20;;;;;;5005683;28;20498;-74
2022/03/15 08:14:32;;;;;;;1.50;1.30;;;8.30;98.20;;;;;;5005809;28;20491;-74
2022/03/15 08:17:00;;;;;;;1.50;1.30;;;8.30;98.20;;;;;;5006037;28;20468;-75
2022/03/15 08:19:28;;;;;;;1.50;1.10;;;8.40;98.20;;;;;;5006477;28;20500;-76
2022/03/15 08:21:58;;;;;;;1.50;1.20;;;8.40;98.20;;;;;;5006468;28;20470;-73
2022/03/15 08:24:25;;;;;;;1.50;1.13;;;8.50;98.20;;;;;;4999239;28;20496;-73
2022/03/15 08:26:52;;;;;;;1.50;1.10;;;8.60;98.20;;;;;;5004689;28;20468;-75
2022/03/15 08:29:18;;;;;;;1.50;1.10;;;8.60;98.20;;;;;;5007967;28;20467;-74
2022/03/15 08:31:45;;;;;;;1.50;1.10;;;8.60;98.20;;;;;;5007261;28;20474;-74
2022/03/15 08:34:12;;;;;;;1.50;1.23;;;8.70;98.20;;;;;;5008588;28;20487;-73
2022/03/15 08:36:39;;;;;;;1.50;1.37;;;8.70;98.20;;;;;;5007067;28;20463;-73
2022/03/15 08:39:07;;;;;;;1.50;1.30;;;8.70;98.20;;;;;;5008527;28;20553;-71
2022/03/15 08:41:34;;;;;;;1.50;1.20;;;8.80;98.20;;;;;;5005717;28;20472;-72
2022/03/15 08:44:01;;;;;;;1.50;1.10;;;8.80;98.20;;;;;;5007087;28;21045;-72
2022/03/15 08:46:28;;;;;;;1.50;1.10;;;8.80;98.20;;;;;;5007571;28;20475;-72
2022/03/15 08:48:55;;;;;;;1.50;1.30;;;8.80;98.20;;;;;;5007230;28;20456;-73
2022/03/15 08:51:22;;;;;;;1.50;1.30;;;8.90;98.20;;;;;;5003381;28;20695;-73
2022/03/15 08:53:49;;;;;;;1.50;1.20;;;8.90;98.20;;;;;;5006679;28;21152;-73
2022/03/15 08:56:17;;;;;;;1.50;1.23;;;8.90;98.20;;;;;;5005556;28;20467;-72
2022/03/15 08:58:43;;;;;;;1.50;1.20;;;9.00;98.20;;;;;;5006979;28;20676;-71
2022/03/15 09:01:10;;;;;;;1.50;1.20;;;9.00;98.20;;;;;;5005348;28;20949;-71
2022/03/15 09:03:37;;;;;;;1.50;1.20;;;9.10;98.20;;;;;;5004257;28;21153;-71
2022/03/15 09:06:04;;;;;;;1.50;1.30;;;9.10;98.20;;;;;;5006157;28;20472;-70
2022/03/15 09:08:31;;;;;;;1.57;1.30;;;9.10;98.20;;;;;;5006338;28;20830;-71
2022/03/15 09:10:57;;;;;;;1.50;1.10;;;9.10;98.20;;;;;;5005010;28;20468;-70
2022/03/15 09:13:25;;;;;;;2.43;2.23;;;9.10;98.20;;;;;;5006728;28;21024;-70
2022/03/15 09:15:53;;;;;;;1.50;1.10;;;9.20;98.20;;;;;;5006031;28;20673;-70
2022/03/15 09:18:20;;;;;;;1.60;1.33;;;9.20;98.20;;;;;;5006496;28;21395;-70
2022/03/15 09:20:47;;;;;;;1.50;1.10;;;9.20;98.20;;;;;;5005146;28;20468;-71
2022/03/15 09:23:14;;;;;;;1.50;1.10;;;9.30;98.20;;;;;;5002334;28;20489;-71
2022/03/15 09:25:41;;;;;;;1.50;1.20;;;9.30;98.20;;;;;;5008539;28;20546;-71
2022/03/15 09:28:07;;;;;;;1.50;1.10;;;9.30;98.20;;;;;;5010194;28;20903;-70
2022/03/15 09:30:35;;;;;;;1.50;1.10;;;9.30;98.20;;;;;;5005316;28;20858;-71
2022/03/15 09:33:02;;;;;;;1.50;1.20;;;9.30;98.20;;;;;;5006353;28;20483;-71
2022/03/15 09:35:29;;;;;;;1.50;1.10;;;9.30;98.20;;;;;;5001957;28;20594;-71
2022/03/15 09:37:56;;;;;;;1.50;1.10;;;9.30;98.20;;;;;;5008045;28;20472;-71
2022/03/15 09:40:25;;;;;;;1.50;1.20;;;9.30;98.20;;;;;;5003904;28;21074;-72
2022/03/15 09:42:57;;;;;;;1.50;1.17;;;9.30;98.20;;;;;;4997910;28;20496;-71
2022/03/15 09:45:29;;;;;;;1.50;1.10;;;9.30;98.20;;;;;;5004899;28;20476;-72
2022/03/15 09:47:58;;;;;;;1.50;1.10;;;9.40;98.20;;;;;;5004917;28;20468;-71
2022/03/15 09:50:26;;;;;;;1.50;1.10;;;9.40;98.20;;;;;;5004436;28;20517;-71
2022/03/15 09:52:56;;;;;;;1.50;1.20;;;9.50;98.20;;;;;;5005898;28;20953;-72
2022/03/15 09:55:24;;;;;;;1.70;1.50;;;9.50;98.20;;;;;;5006179;28;20460;-71
2022/03/15 09:57:52;;;;;;;1.50;1.10;;;9.50;98.20;;;;;;5005970;28;21217;-72
2022/03/15 10:00:19;;;;;;;1.50;1.20;;;9.50;98.20;;;;;;5005150;28;20524;-72
2022/03/15 10:02:47;;;;;;;1.50;1.20;;;9.60;98.20;;;;;;5006371;28;20464;-72
2022/03/15 10:05:15;;;;;;;1.50;1.10;;;9.60;98.20;;;;;;5005013;28;20460;-72
2022/03/15 10:07:42;;;;;;;1.50;1.10;;;9.70;98.20;;;;;;5004864;28;20931;-72
2022/03/15 10:10:12;;;;;;;1.50;1.10;;;9.70;98.20;;;;;;5005903;28;20460;-73
2022/03/15 10:12:38;;;;;;;1.60;1.43;;;9.70;98.20;;;;;;5005973;28;20602;-72
2022/03/15 10:15:13;;;;;;;1.50;1.10;;;9.80;98.20;;;;;;5006265;28;20476;-73
2022/03/15 10:17:48;;;;;;;1.50;1.10;;;9.90;98.20;;;;;;5005995;28;20475;-72
2022/03/15 10:20:18;;;;;;;2.50;2.30;;;9.90;98.20;;;;;;5005743;28;20487;-72
2022/03/15 10:22:53;;;;;;;1.50;1.17;;;10.00;98.20;;;;;;5006322;28;20468;-73
2022/03/15 10:25:22;;;;;;;1.50;1.20;;;10.00;98.20;;;;;;5005111;28;20464;-72
2022/03/15 10:27:54;;;;;;;1.50;1.10;;;10.00;98.20;;;;;;5006255;28;20534;-73
2022/03/15 10:30:21;;;;;;;1.50;1.23;;;10.10;98.20;;;;;;5006021;28;20464;-72
2022/03/15 10:32:48;;;;;;;6.23;5.80;;;10.10;98.20;;;;;;5006657;28;20545;-72
2022/03/15 10:35:20;;;;;;;1.50;1.10;;;10.10;98.20;;;;;;5005388;28;20463;-72
2022/03/15 10:37:47;;;;;;;1.60;1.30;;;10.20;98.20;;;;;;5005571;28;20980;-72
2022/03/15 10:40:15;;;;;;;1.50;1.10;;;10.20;98.20;;;;;;5005523;28;20531;-72
2022/03/15 10:42:44;;;;;;;1.50;1.10;;;10.20;98.20;;;;;;5006422;28;20468;-72
2022/03/15 10:45:21;;;;;;;1.50;1.30;;;10.20;98.20;;;;;;5006149;28;20468;-72
2022/03/15 10:47:50;;;;;;;1.50;1.10;;;10.20;98.20;;;;;;5006403;28;20467;-72
2022/03/15 10:50:19;;;;;;;1.50;1.20;;;10.20;98.20;;;;;;5005052;28;20476;-72
2022/03/15 10:52:46;;;;;;;1.50;1.10;;;10.20;98.20;;;;;;5006096;28;20471;-72
2022/03/15 10:55:16;;;;;;;1.50;1.03;;;10.30;98.20;;;;;;5003770;28;20499;-73
2022/03/15 10:57:51;;;;;;;1.50;1.10;;;10.30;98.20;;;;;;5005779;28;20890;-73
2022/03/15 11:00:20;;;;;;;1.70;1.53;;;10.30;98.20;;;;;;5005421;28;20487;-71
2022/03/15 11:02:49;;;;;;;1.50;1.10;;;10.30;98.20;;;;;;5004654;28;20979;-73
2022/03/15 11:05:30;;;;;;;1.50;1.10;;;10.40;98.20;;;;;;5005531;28;20460;-71
2022/03/15 11:07:58;;;;;;;1.50;1.10;;;10.40;98.20;;;;;;5004994;28;20468;-72
2022/03/15 11:10:25;;;;;;;1.50;1.10;;;10.40;98.20;;;;;;5004828;28;20452;-71
2022/03/15 11:12:56;;;;;;;1.50;1.00;;;10.40;98.20;;;;;;5005233;28;20460;-71
2022/03/15 11:15:28;;;;;;;1.50;1.10;;;10.40;98.20;;;;;;5002043;28;20464;-71
2022/03/15 11:17:58;;;;;;;1.60;1.30;;;10.40;98.20;;;;;;5001499;28;20548;-71
2022/03/15 11:20:28;;;;;;;1.50;1.10;;;10.40;98.20;;;;;;5002049;28;20572;-71
2022/03/15 11:23:00;;;;;;;1.50;1.20;;;10.50;98.20;;;;;;5001682;28;20580;-72
2022/03/15 11:25:33;;;;;;;1.50;1.10;;;10.40;98.20;;;;;;5011311;28;20555;-71
2022/03/15 11:28:02;;;;;;;1.50;1.10;;;10.40;98.20;;;;;;5003838;28;20554;-71
2022/03/15 11:30:29;;;;;;;1.50;1.10;;;10.40;98.20;;;;;;5002966;28;20456;-71
2022/03/15 11:32:57;;;;;;;1.50;1.10;;;10.40;98.20;;;;;;5009242;28;20898;-72
2022/03/15 11:35:24;;;;;;;1.50;1.00;;;10.40;98.20;;;;;;5003764;28;20470;-73
2022/03/15 11:37:53;;;;;;;3.20;2.40;;;10.30;98.20;;;;;;5003529;28;20943;-72
2022/03/15 11:40:21;;;;;;;1.50;1.10;;;10.30;98.20;;;;;;5002410;28;20499;-70
2022/03/15 11:42:49;;;;;;;1.50;1.10;;;10.30;98.20;;;;;;5004151;28;20539;-73
2022/03/15 11:45:24;;;;;;;1.50;1.03;;;10.20;98.20;;;;;;5003955;28;20460;-75
2022/03/15 11:48:03;;;;;;;1.50;1.10;;;10.20;98.20;;;;;;5002393;28;20467;-73
2022/03/15 11:50:38;;;;;;;1.50;1.10;;;10.20;98.20;;;;;;5003782;28;20460;-76
2022/03/15 11:53:13;;;;;;;1.50;1.10;;;10.20;98.20;;;;;;5004565;28;20493;-74
2022/03/15 11:55:49;;;;;;;1.50;1.10;;;10.30;98.20;;;;;;5002858;28;20642;-73
2022/03/15 11:58:23;;;;;;;1.50;1.10;;;10.20;98.20;;;;;;5004343;28;20455;-74
2022/03/15 12:00:50;;;;;;;1.50;1.10;;;10.30;98.20;;;;;;5003093;28;20952;-72
2022/03/15 12:03:21;;;;;;;1.50;1.10;;;10.30;98.20;;;;;;5004093;28;20590;-75
2022/03/15 12:05:50;;;;;;;1.50;1.10;;;10.30;98.20;;;;;;4999799;28;20464;-76
2022/03/15 12:08:20;;;;;;;1.50;1.10;;;10.40;98.20;;;;;;5003803;28;20475;-71
2022/03/15 12:10:56;;;;;;;1.50;1.10;;;10.40;98.20;;;;;;5002936;28;20491;-74
2022/03/15 12:13:34;;;;;;;1.50;1.10;;;10.40;98.20;;;;;;5003619;28;20980;-73
2022/03/15 12:16:12;;;;;;;1.50;1.03;;;10.30;98.20;;;;;;5004173;28;20529;-72
2022/03/15 12:18:46;;;;;;;1.50;1.00;;;10.40;98.20;;;;;;5002618;28;20525;-72
2022/03/15 12:21:14;;;;;;;1.50;1.00;;;10.40;98.20;;;;;;4996792;28;20547;-72
2022/03/15 12:23:44;;;;;;;1.50;1.00;;;10.40;98.20;;;;;;5003441;28;20872;-73
2022/03/15 12:26:19;;;;;;;1.50;1.00;;;10.30;98.20;;;;;;5001807;28;20460;-73
2022/03/15 12:28:59;;;;;;;1.50;1.10;;;10.30;98.20;;;;;;5003118;28;20475;-72
2022/03/15 12:31:34;;;;;;;1.50;1.00;;;10.30;98.20;;;;;;5003292;28;20468;-72
2022/03/15 12:34:02;;;;;;;1.50;1.10;;;10.30;98.20;;;;;;5003630;28;20920;-72
2022/03/15 12:36:36;;;;;;;1.50;1.00;;;10.30;98.20;;;;;;5002863;28;20959;-72
2022/03/15 12:39:10;;;;;;;1.50;1.00;;;10.40;98.20;;;;;;5005795;28;20472;-71
2022/03/15 12:41:37;;;;;;;1.50;1.10;;;10.50;98.20;;;;;;4997158;28;20687;-72
2022/03/15 12:44:05;;;;;;;1.50;1.10;;;10.60;98.20;;;;;;5003160;28;20524;-71
2022/03/15 12:46:32;;;;;;;1.50;1.03;;;10.60;98.20;;;;;;4998124;28;21049;-72
2022/03/15 12:49:06;;;;;;;1.50;1.00;;;10.70;98.20;;;;;;5012487;28;20474;-71
2022/03/15 12:51:37;;;;;;;1.50;1.00;;;10.70;98.20;;;;;;5002002;28;20547;-71
2022/03/15 12:54:06;;;;;;;1.50;1.20;;;10.70;98.20;;;;;;5002698;28;20496;-71
2022/03/15 12:56:42;;;;;;;1.50;1.00;;;10.80;98.20;;;;;;5002083;28;20471;-72
2022/03/15 12:59:21;;;;;;;1.50;1.00;;;10.70;98.20;;;;;;5000902;28;20471;-73
2022/03/15 13:01:48;;;;;;;1.50;1.10;;;10.70;98.20;;;;;;5003812;28;20471;-72
2022/03/15 13:04:15;;;;;;;1.50;1.10;;;10.80;98.20;;;;;;5005745;28;20500;-71